createdAt,value
2022-12-12T00:02:25.291Z,1.93
2022-12-12T00:04:59.403Z,1.57
2022-12-12T00:07:29.148Z,1.61
2022-12-12T00:09:58.867Z,1.73
2022-12-12T00:12:28.679Z,1.74
2022-12-12T00:14:58.485Z,1.69
2022-12-12T00:17:28.524Z,1.82
2022-12-12T00:19:58.323Z,1.86
2022-12-12T00:22:28.325Z,1.82
2022-12-12T00:24:58.339Z,1.79
2022-12-12T00:27:28.076Z,1.68
2022-12-12T00:29:58.110Z,1.67
2022-12-12T00:32:27.829Z,1.60
2022-12-12T00:34:57.871Z,1.77
2022-12-12T00:37:27.660Z,1.59
2022-12-12T00:39:58.275Z,1.65
2022-12-12T00:42:28.453Z,1.63
2022-12-12T00:44:58.586Z,1.51
2022-12-12T00:47:28.381Z,1.41
2022-12-12T00:49:58.418Z,1.48
2022-12-12T00:52:28.174Z,1.65
2022-12-12T00:54:58.430Z,1.65
2022-12-12T00:57:28.001Z,1.62
2022-12-12T00:59:58.680Z,1.56
2022-12-12T01:02:28.650Z,1.64
2022-12-12T01:04:58.331Z,1.58
2022-12-12T01:07:28.661Z,1.52
2022-12-12T01:09:58.457Z,1.46
2022-12-12T01:12:28.270Z,1.38
2022-12-12T01:14:58.071Z,1.44
2022-12-12T01:17:27.866Z,1.40
2022-12-12T01:19:57.906Z,1.23
2022-12-12T01:22:27.455Z,1.23
2022-12-12T01:24:57.208Z,1.22
2022-12-12T01:27:27.478Z,1.10
2022-12-12T01:29:59.144Z,0.79
2022-12-12T01:32:29.931Z,1.08
2022-12-12T01:34:59.909Z,1.02
2022-12-12T01:37:29.661Z,0.71
2022-12-12T01:39:59.372Z,0.97
2022-12-12T01:42:29.889Z,0.94
2022-12-12T01:44:59.689Z,0.85
2022-12-12T01:47:29.401Z,0.81
2022-12-12T01:50:02.198Z,0.84
2022-12-12T01:52:37.989Z,0.77
2022-12-12T01:55:10.503Z,0.65
2022-12-12T01:57:43.562Z,0.58
2022-12-12T02:00:15.727Z,0.53
2022-12-12T02:02:47.215Z,0.41
2022-12-12T02:05:25.121Z,0.47
2022-12-12T02:07:55.756Z,0.36
2022-12-12T02:10:25.515Z,0.45
2022-12-12T02:12:58.665Z,0.36
2022-12-12T02:15:31.794Z,0.20
2022-12-12T02:18:12.362Z,0.18
2022-12-12T02:21:06.667Z,0.17
2022-12-12T02:23:57.511Z,0.18
2022-12-12T02:26:32.445Z,0.07
2022-12-12T02:29:10.405Z,-0.08
2022-12-12T02:31:45.749Z,0.17
2022-12-12T02:34:31.545Z,0.21
2022-12-12T02:37:21.036Z,-0.08
2022-12-12T02:39:59.840Z,0.03
2022-12-12T02:42:32.600Z,0.15
2022-12-12T02:45:14.589Z,0.09
2022-12-12T02:47:49.965Z,-0.04
2022-12-12T02:50:25.279Z,-0.04
2022-12-12T02:52:55.010Z,0.05
2022-12-12T02:55:25.031Z,0.01
2022-12-12T02:57:55.892Z,-0.12
2022-12-12T03:00:26.169Z,0.07
2022-12-12T03:03:34.628Z,-0.10
2022-12-12T03:06:37.753Z,-0.04
2022-12-12T03:09:29.452Z,-0.06
2022-12-12T03:12:04.888Z,-0.09
2022-12-12T03:14:58.037Z,-0.17
2022-12-12T03:17:42.454Z,-0.17
2022-12-12T03:20:35.879Z,-0.21
2022-12-12T03:23:11.685Z,-0.39
2022-12-12T03:26:05.627Z,-0.09
2022-12-12T03:28:39.586Z,-0.20
2022-12-12T03:31:11.826Z,-0.19
2022-12-12T03:33:45.260Z,-0.34
2022-12-12T03:36:23.760Z,-0.45
2022-12-12T03:39:11.764Z,-0.46
2022-12-12T03:41:44.643Z,-0.51
2022-12-12T03:44:28.987Z,-0.43
2022-12-12T03:47:04.696Z,-0.46
2022-12-12T03:49:37.476Z,-0.37
2022-12-12T03:52:19.140Z,-0.27
2022-12-12T03:54:52.231Z,-0.27
2022-12-12T03:57:25.032Z,-0.22
2022-12-12T04:00:00.499Z,-0.43
2022-12-12T04:02:33.065Z,-0.42
2022-12-12T04:05:17.672Z,-0.44
2022-12-12T04:07:56.438Z,-0.53
2022-12-12T04:10:45.977Z,-0.73
2022-12-12T04:13:20.392Z,-0.60
2022-12-12T04:15:55.886Z,-0.57
2022-12-12T04:18:47.729Z,-0.57
2022-12-12T04:21:37.977Z,-0.70
2022-12-12T04:24:32.856Z,-0.68
2022-12-12T04:27:20.815Z,-0.76
2022-12-12T04:29:53.636Z,-0.89
2022-12-12T04:32:28.877Z,-0.99
2022-12-12T04:35:13.261Z,-0.97
2022-12-12T04:37:49.004Z,-1.00
2022-12-12T04:40:21.484Z,-0.93
2022-12-12T04:43:03.500Z,-0.84
2022-12-12T04:45:36.352Z,-1.00
2022-12-12T04:48:08.991Z,-0.98
2022-12-12T04:50:40.282Z,-0.97
2022-12-12T04:53:18.586Z,-1.10
2022-12-12T04:55:52.331Z,-1.23
2022-12-12T04:58:22.235Z,-1.25
2022-12-12T05:01:06.750Z,-1.12
2022-12-12T05:03:51.536Z,-1.18
2022-12-12T05:06:24.665Z,-1.21
2022-12-12T05:08:56.051Z,-1.38
2022-12-12T05:11:26.284Z,-1.34
2022-12-12T05:13:56.073Z,-1.37
2022-12-12T05:16:35.218Z,-1.17
2022-12-12T05:19:05.341Z,-1.30
2022-12-12T05:21:35.068Z,-1.32
2022-12-12T05:24:05.060Z,-1.39
2022-12-12T05:26:36.337Z,-1.35
2022-12-12T05:29:07.682Z,-1.36
2022-12-12T05:31:37.901Z,-1.35
2022-12-12T05:34:07.650Z,-1.35
2022-12-12T05:36:37.423Z,-1.54
2022-12-12T05:39:07.473Z,-1.46
2022-12-12T05:41:37.238Z,-1.57
2022-12-12T05:44:07.041Z,-1.49
2022-12-12T05:46:37.142Z,-1.49
2022-12-12T05:49:06.883Z,-1.69
2022-12-12T05:51:36.632Z,-1.80
2022-12-12T05:54:06.376Z,-1.78
2022-12-12T05:56:36.432Z,-1.69
2022-12-12T05:59:06.486Z,-1.70
2022-12-12T06:01:36.295Z,-1.66
2022-12-12T06:04:05.920Z,-1.76
2022-12-12T06:06:35.422Z,-1.80
2022-12-12T06:09:04.984Z,-1.94
2022-12-12T06:11:34.806Z,-1.95
2022-12-12T06:14:05.521Z,-1.96
2022-12-12T06:16:36.650Z,-1.93
2022-12-12T06:19:06.392Z,-1.95
2022-12-12T06:21:35.876Z,-1.98
2022-12-12T06:24:07.565Z,-1.97
2022-12-12T06:26:37.613Z,-1.95
2022-12-12T06:29:07.716Z,-1.98
2022-12-12T06:31:37.875Z,-1.84
2022-12-12T06:34:09.447Z,-2.02
2022-12-12T06:36:39.426Z,-2.08
2022-12-12T06:39:09.769Z,-1.89
2022-12-12T06:41:39.811Z,-1.78
2022-12-12T06:44:10.700Z,-1.98
2022-12-12T06:46:40.733Z,-1.91
2022-12-12T06:49:10.606Z,-2.02
2022-12-12T06:51:45.086Z,-2.05
2022-12-12T06:54:18.498Z,-2.09
2022-12-12T06:56:48.924Z,-2.14
2022-12-12T06:59:18.939Z,-2.18
2022-12-12T07:01:48.759Z,-2.11
2022-12-12T07:04:18.370Z,-2.11
2022-12-12T07:06:48.122Z,-2.16
2022-12-12T07:09:19.152Z,-2.08
2022-12-12T07:11:48.945Z,-2.13
2022-12-12T07:14:18.899Z,-2.10
2022-12-12T07:16:48.958Z,-2.15
2022-12-12T07:19:18.719Z,-2.24
2022-12-12T07:21:48.452Z,-2.12
2022-12-12T07:24:17.902Z,-2.06
2022-12-12T07:26:47.650Z,-2.06
2022-12-12T07:29:18.229Z,-2.12
2022-12-12T07:31:47.987Z,-2.31
2022-12-12T07:34:17.971Z,-2.23
2022-12-12T07:36:48.028Z,-2.18
2022-12-12T07:39:20.990Z,-2.20
2022-12-12T07:41:49.509Z,-2.21
2022-12-12T07:44:20.973Z,-2.16
2022-12-12T07:46:51.085Z,-2.07
2022-12-12T07:49:20.781Z,-2.17
2022-12-12T07:51:50.536Z,-2.33
2022-12-12T07:54:20.425Z,-2.25
2022-12-12T07:56:49.880Z,-2.26
2022-12-12T07:59:19.705Z,-2.21
2022-12-12T08:01:49.225Z,-2.18
2022-12-12T08:04:19.105Z,-2.36
2022-12-12T08:06:52.680Z,-2.19
2022-12-12T08:09:20.260Z,-2.14
2022-12-12T08:11:50.075Z,-2.10
2022-12-12T08:14:19.536Z,-2.14
2022-12-12T08:16:49.270Z,-2.16
2022-12-12T08:19:19.571Z,-2.23
2022-12-12T08:21:49.315Z,-2.06
2022-12-12T08:24:19.365Z,-1.83
2022-12-12T08:26:52.000Z,-1.86
2022-12-12T08:29:21.897Z,-1.84
2022-12-12T08:31:51.644Z,-1.74
2022-12-12T08:34:21.206Z,-1.70
2022-12-12T08:36:52.425Z,-1.74
2022-12-12T08:39:22.622Z,-1.48
2022-12-12T08:41:52.538Z,-1.53
2022-12-12T08:44:22.600Z,-1.54
2022-12-12T08:46:52.402Z,-1.42
2022-12-12T08:49:22.297Z,-1.30
2022-12-12T08:51:52.133Z,-1.36
2022-12-12T08:54:21.878Z,-1.14
2022-12-12T08:56:51.687Z,-0.99
2022-12-12T08:59:21.135Z,-0.98
2022-12-12T09:01:51.377Z,-0.94
2022-12-12T09:04:21.100Z,-0.95
2022-12-12T09:06:50.902Z,-0.73
2022-12-12T09:09:20.938Z,-0.70
2022-12-12T09:11:50.689Z,-0.70
2022-12-12T09:14:20.256Z,-0.70
2022-12-12T09:16:50.077Z,-0.60
2022-12-12T09:19:20.112Z,-0.66
2022-12-12T09:21:49.869Z,-0.17
2022-12-12T09:24:19.581Z,-0.17
2022-12-12T09:26:49.321Z,-0.37
2022-12-12T09:29:19.136Z,-0.18
2022-12-12T09:31:48.974Z,0.01
2022-12-12T09:34:18.393Z,0.11
2022-12-12T09:36:48.142Z,0.01
2022-12-12T09:39:17.895Z,0.18
2022-12-12T09:41:47.637Z,0.30
2022-12-12T09:44:20.208Z,0.35
2022-12-12T09:46:53.748Z,0.31
2022-12-12T09:49:31.998Z,0.38
2022-12-12T09:52:03.680Z,0.34
2022-12-12T09:54:33.563Z,0.41
2022-12-12T09:57:21.997Z,0.26
2022-12-12T10:00:00.831Z,0.51
2022-12-12T10:02:51.357Z,0.95
2022-12-12T10:05:24.905Z,1.07
2022-12-12T10:08:23.238Z,0.98
2022-12-12T10:10:58.867Z,0.98
2022-12-12T10:13:30.421Z,1.12
2022-12-12T10:16:05.771Z,1.23
2022-12-12T10:18:44.561Z,0.72
2022-12-12T10:21:17.358Z,1.14
2022-12-12T10:23:53.505Z,1.00
2022-12-12T10:26:26.251Z,1.31
2022-12-12T10:28:59.021Z,1.38
2022-12-12T10:31:31.901Z,1.19
2022-12-12T10:37:03.822Z,1.48
2022-12-12T10:39:45.241Z,1.54
2022-12-12T10:42:20.545Z,1.68
2022-12-12T10:44:55.578Z,1.53
2022-12-12T10:47:25.187Z,1.70
2022-12-12T10:50:13.729Z,1.70
2022-12-12T10:52:43.551Z,1.30
2022-12-12T10:55:22.979Z,1.41
2022-12-12T10:58:04.060Z,1.61
2022-12-12T11:00:36.588Z,1.73
2022-12-12T11:03:24.709Z,1.59
2022-12-12T11:05:56.116Z,1.39
2022-12-12T11:08:33.273Z,1.21
2022-12-12T11:11:24.515Z,1.26
2022-12-12T11:14:00.322Z,1.21
2022-12-12T11:16:33.322Z,1.65
2022-12-12T11:19:20.061Z,1.72
2022-12-12T11:21:49.339Z,1.69
2022-12-12T11:24:24.807Z,1.96
2022-12-12T11:27:00.782Z,2.09
2022-12-12T11:29:48.027Z,2.23
2022-12-12T11:32:23.767Z,2.28
2022-12-12T11:34:56.545Z,2.28
2022-12-12T11:37:29.601Z,2.50
2022-12-12T11:39:59.345Z,2.67
2022-12-12T11:42:34.891Z,2.29
2022-12-12T11:45:13.173Z,2.10
2022-12-12T11:47:46.053Z,1.85
2022-12-12T11:50:29.199Z,2.33
2022-12-12T11:53:02.119Z,2.44
2022-12-12T11:55:46.567Z,2.58
2022-12-12T11:58:24.904Z,2.72
2022-12-12T12:01:15.735Z,2.57
2022-12-12T12:03:57.011Z,2.83
2022-12-12T12:06:35.375Z,2.83
2022-12-12T12:09:20.307Z,2.77
2022-12-12T12:12:05.102Z,3.01
2022-12-12T12:14:40.705Z,2.89
2022-12-12T12:17:15.687Z,3.30
2022-12-12T12:19:48.497Z,3.10
2022-12-12T12:22:41.793Z,3.70
2022-12-12T12:25:17.148Z,4.04
2022-12-12T12:28:20.732Z,4.28
2022-12-12T12:30:59.629Z,4.48
2022-12-12T12:33:44.142Z,4.61
2022-12-12T12:36:21.075Z,5.00
2022-12-12T12:39:07.177Z,5.19
2022-12-12T12:42:04.323Z,5.13
2022-12-12T12:44:55.040Z,4.89
2022-12-12T12:47:33.470Z,4.15
2022-12-12T12:50:20.317Z,4.09
2022-12-12T12:53:11.727Z,3.70
2022-12-12T12:55:47.157Z,3.53
2022-12-12T12:58:25.395Z,3.67
2022-12-12T13:00:58.213Z,4.18
2022-12-12T13:03:31.057Z,3.99
2022-12-12T13:06:04.102Z,3.70
2022-12-12T13:08:39.908Z,3.77
2022-12-12T13:11:18.306Z,3.76
2022-12-12T13:13:49.972Z,3.65
2022-12-12T13:16:25.995Z,4.25
2022-12-12T13:19:07.577Z,4.45
2022-12-12T13:21:54.894Z,4.92
2022-12-12T13:24:59.799Z,5.00
2022-12-12T13:27:36.546Z,4.30
2022-12-12T13:30:17.008Z,4.95
2022-12-12T13:33:06.275Z,5.08
2022-12-12T13:35:43.466Z,4.91
2022-12-12T13:38:21.769Z,4.90
2022-12-12T13:41:09.022Z,4.80
2022-12-12T13:43:44.741Z,4.35
2022-12-12T13:46:21.030Z,4.13
2022-12-12T13:49:02.659Z,4.11
2022-12-12T13:51:34.777Z,3.99
2022-12-12T13:57:02.677Z,3.95
2022-12-12T13:59:32.846Z,3.36
2022-12-12T14:02:21.279Z,3.54
2022-12-12T14:05:10.483Z,3.74
2022-12-12T14:07:42.403Z,3.72
2022-12-12T14:10:18.848Z,3.35
2022-12-12T14:12:48.758Z,3.30
2022-12-12T14:15:33.704Z,3.60
2022-12-12T14:18:04.894Z,3.35
2022-12-12T14:20:38.931Z,3.31
2022-12-12T14:23:11.714Z,3.27
2022-12-12T14:25:42.782Z,3.24
2022-12-12T14:28:21.024Z,2.93
2022-12-12T14:31:05.723Z,2.93
2022-12-12T14:33:47.401Z,2.81
2022-12-12T14:36:40.778Z,2.95
2022-12-12T14:39:21.892Z,2.91
2022-12-12T14:41:53.268Z,2.78
2022-12-12T14:44:34.890Z,2.81
2022-12-12T14:47:04.853Z,2.66
2022-12-12T14:49:34.612Z,2.78
2022-12-12T14:52:06.486Z,2.77
2022-12-12T14:54:37.756Z,2.48
2022-12-12T14:57:08.422Z,2.48
2022-12-12T14:59:42.271Z,2.63
2022-12-12T15:02:25.879Z,2.48
2022-12-12T15:05:04.348Z,2.24
2022-12-12T15:07:33.353Z,2.23
2022-12-12T15:10:03.466Z,2.22
2022-12-12T15:12:36.415Z,2.04
2022-12-12T15:15:09.379Z,1.81
2022-12-12T15:17:50.399Z,1.81
2022-12-12T15:20:25.846Z,1.73
2022-12-12T15:23:01.813Z,1.68
2022-12-12T15:25:37.132Z,1.56
2022-12-12T15:28:14.902Z,1.53
2022-12-12T15:30:45.785Z,1.49
2022-12-12T15:33:21.826Z,1.45
2022-12-12T15:35:59.515Z,1.36
2022-12-12T15:38:25.594Z,1.03
2022-12-12T15:40:57.805Z,1.12
2022-12-12T15:43:29.884Z,0.91
2022-12-12T15:46:04.100Z,0.77
2022-12-12T15:48:33.996Z,0.67
2022-12-12T15:51:06.798Z,0.42
2022-12-12T15:53:39.512Z,0.44
2022-12-12T15:56:16.155Z,0.40
2022-12-12T15:58:48.527Z,0.07
2022-12-12T16:01:22.494Z,0.07
2022-12-12T16:04:06.280Z,0.26
2022-12-12T16:06:47.019Z,0.07
2022-12-12T16:09:21.972Z,0.07
2022-12-12T16:11:55.036Z,0.26
2022-12-12T16:14:41.370Z,0.24
2022-12-12T16:17:13.314Z,-0.06
2022-12-12T16:19:46.363Z,-0.16
2022-12-12T16:22:40.918Z,-0.30
2022-12-12T16:25:28.449Z,-0.15
2022-12-12T16:28:12.966Z,-0.17
2022-12-12T16:30:44.143Z,-0.22
2022-12-12T16:33:34.213Z,-0.17
2022-12-12T16:36:09.439Z,-0.17
2022-12-12T16:38:40.233Z,-0.35
2022-12-12T16:41:15.699Z,-0.25
2022-12-12T16:43:44.874Z,-0.09
2022-12-12T16:46:23.364Z,0.00
2022-12-12T16:48:53.910Z,-0.32
2022-12-12T16:51:27.959Z,-0.50
2022-12-12T16:53:57.876Z,-0.43
2022-12-12T16:56:27.667Z,-0.54
2022-12-12T16:58:57.490Z,-0.60
2022-12-12T17:01:27.350Z,-0.48
2022-12-12T17:03:57.795Z,-0.51
2022-12-12T17:06:27.546Z,-0.54
2022-12-12T17:08:57.279Z,-0.64
2022-12-12T17:11:27.440Z,-0.48
2022-12-12T17:13:57.177Z,-0.70
2022-12-12T17:16:28.064Z,-0.70
2022-12-12T17:18:58.416Z,-0.69
2022-12-12T17:21:28.158Z,-0.87
2022-12-12T17:23:57.917Z,-0.92
2022-12-12T17:26:27.668Z,-0.98
2022-12-12T17:28:57.463Z,-1.00
2022-12-12T17:31:27.355Z,-1.15
2022-12-12T17:33:57.102Z,-1.10
2022-12-12T17:36:26.563Z,-1.18
2022-12-12T17:38:56.448Z,-1.21
2022-12-12T17:41:26.266Z,-1.24
2022-12-12T17:43:56.932Z,-1.23
2022-12-12T17:46:28.095Z,-1.21
2022-12-12T17:49:01.196Z,-1.22
2022-12-12T17:51:30.967Z,-1.25
2022-12-12T17:54:00.734Z,-1.29
2022-12-12T17:56:30.795Z,-1.18
2022-12-12T17:59:02.483Z,-1.30
2022-12-12T18:01:32.761Z,-1.35
2022-12-12T18:04:03.588Z,-1.21
2022-12-12T18:06:35.880Z,-1.21
2022-12-12T18:09:06.068Z,-1.15
2022-12-12T18:11:38.147Z,-1.35
2022-12-12T18:14:12.859Z,-1.50
2022-12-12T18:16:44.811Z,-1.46
2022-12-12T18:19:14.867Z,-1.48
2022-12-12T18:22:02.060Z,-1.50
2022-12-12T18:24:18.965Z,-1.44
2022-12-12T18:26:54.274Z,-1.51
2022-12-12T18:29:24.650Z,-1.52
2022-12-12T18:31:54.752Z,-1.61
2022-12-12T18:34:25.393Z,-1.42
2022-12-12T18:36:55.133Z,-1.65
2022-12-12T18:39:25.962Z,-1.65
2022-12-12T18:41:56.038Z,-1.42
2022-12-12T18:44:25.857Z,-1.49
2022-12-12T18:46:55.685Z,-1.55
2022-12-12T18:49:25.440Z,-1.76
2022-12-12T18:51:55.441Z,-1.70
2022-12-12T18:54:25.196Z,-1.59
2022-12-12T18:56:54.927Z,-1.75
2022-12-12T18:59:24.729Z,-1.81
2022-12-12T19:01:54.563Z,-1.81
2022-12-12T19:04:25.263Z,-1.76
2022-12-12T19:06:55.285Z,-1.87
2022-12-12T19:09:25.022Z,-1.84
2022-12-12T19:12:01.968Z,-1.82
2022-12-12T19:14:35.666Z,-1.83
2022-12-12T19:16:58.036Z,-1.73
2022-12-12T19:19:27.799Z,-1.89
2022-12-12T19:21:57.540Z,-1.82
2022-12-12T19:24:28.098Z,-1.80
2022-12-12T19:26:57.824Z,-1.87
2022-12-12T19:29:27.881Z,-1.81
2022-12-12T19:31:58.774Z,-2.06
2022-12-12T19:34:28.545Z,-2.10
2022-12-12T19:36:58.350Z,-2.04
2022-12-12T19:39:28.137Z,-2.12
2022-12-12T19:41:57.881Z,-2.17
2022-12-12T19:44:27.556Z,-2.22
2022-12-12T19:46:57.265Z,-2.14
2022-12-12T19:49:27.293Z,-2.01
2022-12-12T19:51:57.048Z,-2.18
2022-12-12T19:54:26.949Z,-2.23
2022-12-12T19:56:56.681Z,-2.26
2022-12-12T19:59:26.310Z,-2.24
2022-12-12T20:01:56.691Z,-2.22
2022-12-12T20:04:27.140Z,-2.32
2022-12-12T20:06:57.210Z,-2.32
2022-12-12T20:09:29.934Z,-2.38
2022-12-12T20:12:00.969Z,-2.38
2022-12-12T20:14:33.969Z,-2.41
2022-12-12T20:17:04.452Z,-2.26
2022-12-12T20:19:34.271Z,-2.30
2022-12-12T20:22:06.559Z,-2.36
2022-12-12T20:24:37.787Z,-2.40
2022-12-12T20:27:08.898Z,-2.49
2022-12-12T20:29:38.911Z,-2.50
2022-12-12T20:32:11.124Z,-2.50
2022-12-12T20:34:40.858Z,-2.48
2022-12-12T20:37:13.063Z,-2.51
2022-12-12T20:39:42.117Z,-2.55
2022-12-12T20:42:12.598Z,-2.51
2022-12-12T20:44:42.654Z,-2.54
2022-12-12T20:47:14.059Z,-2.58
2022-12-12T20:49:43.874Z,-2.58
2022-12-12T20:52:13.501Z,-2.63
2022-12-12T20:54:43.574Z,-2.59
2022-12-12T20:57:13.386Z,-2.57
2022-12-12T20:59:43.119Z,-2.56
2022-12-12T21:02:12.936Z,-2.56
2022-12-12T21:04:42.733Z,-2.68
2022-12-12T21:07:12.479Z,-2.67
2022-12-12T21:09:42.206Z,-2.67
2022-12-12T21:12:11.957Z,-2.67
2022-12-12T21:14:41.696Z,-2.68
2022-12-12T21:17:12.201Z,-2.69
2022-12-12T21:19:42.084Z,-2.72
2022-12-12T21:22:11.678Z,-2.72
2022-12-12T21:24:41.486Z,-2.75
2022-12-12T21:27:11.238Z,-2.84
2022-12-12T21:29:41.037Z,-2.87
2022-12-12T21:32:11.717Z,-2.91
2022-12-12T21:34:41.452Z,-2.92
2022-12-12T21:37:12.261Z,-2.93
2022-12-12T21:39:42.193Z,-2.86
2022-12-12T21:42:13.529Z,-2.84
2022-12-12T21:44:45.792Z,-2.93
2022-12-12T21:47:15.475Z,-2.93
2022-12-12T21:49:45.224Z,-2.96
2022-12-12T21:52:15.234Z,-2.84
2022-12-12T21:54:44.977Z,-2.94
2022-12-12T21:57:14.799Z,-2.98
2022-12-12T21:59:44.537Z,-2.99
2022-12-12T22:02:14.289Z,-3.02
2022-12-12T22:04:44.036Z,-3.04
2022-12-12T22:07:13.808Z,-3.08
2022-12-12T22:09:44.477Z,-3.14
2022-12-12T22:12:18.543Z,-3.13
2022-12-12T22:14:47.046Z,-3.09
2022-12-12T22:17:16.800Z,-2.99
2022-12-12T22:19:46.544Z,-3.09
2022-12-12T22:22:16.323Z,-3.09
2022-12-12T22:24:46.058Z,-3.17
2022-12-12T22:27:15.811Z,-2.99
2022-12-12T22:29:45.274Z,-2.99
2022-12-12T22:32:15.029Z,-3.06
2022-12-12T22:34:46.811Z,-3.17
2022-12-12T22:37:16.570Z,-3.21
2022-12-12T22:39:46.765Z,-3.21
2022-12-12T22:42:16.203Z,-3.25
2022-12-12T22:44:46.529Z,-3.24
2022-12-12T22:47:16.264Z,-3.27
2022-12-12T22:49:46.003Z,-3.01
2022-12-12T22:52:15.459Z,-3.21
2022-12-12T22:54:45.504Z,-3.33
2022-12-12T22:57:16.688Z,-3.32
2022-12-12T22:59:46.446Z,-3.35
2022-12-12T23:02:21.523Z,-3.37
2022-12-12T23:04:47.700Z,-3.37
2022-12-12T23:07:17.576Z,-3.41
2022-12-12T23:09:49.253Z,-3.46
2022-12-12T23:12:22.778Z,-3.51
2022-12-12T23:14:52.516Z,-3.45
2022-12-12T23:17:22.255Z,-3.40
2022-12-12T23:19:52.079Z,-3.40
2022-12-12T23:22:21.807Z,-3.36
2022-12-12T23:24:51.623Z,-3.37
2022-12-12T23:27:21.500Z,-3.32
2022-12-12T23:29:51.615Z,-3.40
2022-12-12T23:32:21.283Z,-3.50
2022-12-12T23:34:51.108Z,-3.54
2022-12-12T23:37:21.576Z,-3.54
2022-12-12T23:39:52.102Z,-3.39
2022-12-12T23:42:21.532Z,-3.49
2022-12-12T23:44:51.629Z,-3.57
2022-12-12T23:47:21.348Z,-3.59
2022-12-12T23:49:51.090Z,-3.64
2022-12-12T23:52:20.539Z,-3.61
2022-12-12T23:54:50.567Z,-3.59
2022-12-12T23:57:20.676Z,-3.64
2022-12-12T23:59:50.474Z,-3.64
